Time;durP1;ratioP1;P1;durP2;ratioP2;P2;SDS_P1;SDS_P2;PMS_P1;PMS_P2;Temp;Humidity;BMP_temperature;BMP_pressure;BME280_temperature;BME280_humidity;BME280_pressure;Samples;Min_cycle;Max_cycle;Signal;HPM_P1;HPM_P2
2024/02/14 00:01:01;;;;;;;8.63;1.50;;;19.70;43.10;;;;;;8432870;28;20124;-49
2024/02/14 00:05:02;;;;;;;7.00;1.90;;;19.60;43.40;;;;;;8432912;28;20485;-50
2024/02/14 00:09:03;;;;;;;10.98;1.70;;;19.60;43.50;;;;;;8414632;28;20032;-53
2024/02/14 00:13:04;;;;;;;6.18;1.50;;;19.60;43.60;;;;;;8432211;28;20052;-51
2024/02/14 00:17:05;;;;;;;3.40;1.13;;;19.60;43.60;;;;;;8432492;28;20028;-51
2024/02/14 00:21:06;;;;;;;9.02;1.20;;;19.60;43.80;;;;;;8432448;28;20059;-52
2024/02/14 00:25:07;;;;;;;1.88;0.80;;;19.60;43.60;;;;;;8432327;28;20047;-49
2024/02/14 00:29:08;;;;;;;4.53;1.23;;;19.50;43.50;;;;;;8432020;28;20039;-50
2024/02/14 00:33:09;;;;;;;3.53;1.10;;;19.60;43.50;;;;;;8431934;28;20044;-49
2024/02/14 00:37:09;;;;;;;5.45;0.98;;;19.50;43.50;;;;;;8432056;28;20437;-50
2024/02/14 00:41:11;;;;;;;3.63;0.80;;;19.50;43.60;;;;;;8430909;28;20086;-51
2024/02/14 00:45:12;;;;;;;2.15;0.88;;;19.50;43.80;;;;;;8426017;28;20025;-54
2024/02/14 00:49:13;;;;;;;4.10;0.90;;;19.60;43.60;;;;;;8425851;28;20736;-50
2024/02/14 00:53:14;;;;;;;;;;;19.60;43.80;;;;;;8425931;28;20036;-54
2024/02/14 00:57:15;;;;;;;1.53;1.10;;;19.60;43.80;;;;;;8425322;28;19969;-52
2024/02/14 01:01:15;;;;;;;1.98;0.90;;;19.60;43.70;;;;;;8424702;28;20106;-52
2024/02/14 01:05:16;;;;;;;4.95;1.35;;;19.60;43.70;;;;;;8425015;28;20027;-53
2024/02/14 01:09:18;;;;;;;;;;;19.60;43.90;;;;;;8426027;28;20028;-53
2024/02/14 01:13:19;;;;;;;2.38;0.90;;;19.60;43.80;;;;;;8430127;28;19943;-52
2024/02/14 01:17:20;;;;;;;11.02;1.70;;;19.60;43.90;;;;;;8409871;28;20028;-53
2024/02/14 01:21:20;;;;;;;2.40;1.13;;;19.60;44.00;;;;;;8428360;28;20043;-53
2024/02/14 01:25:21;;;;;;;6.43;1.10;;;19.50;43.80;;;;;;8412231;28;20040;-54
2024/02/14 01:29:23;;;;;;;5.85;0.90;;;19.50;43.80;;;;;;8430027;28;20040;-53
2024/02/14 01:33:23;;;;;;;3.45;1.10;;;19.50;43.80;;;;;;8427592;28;20111;-54
2024/02/14 01:37:24;;;;;;;12.82;1.23;;;19.50;43.80;;;;;;8426644;28;20040;-54
2024/02/14 01:41:25;;;;;;;9.05;1.80;;;19.40;43.80;;;;;;8426446;28;20093;-53
2024/02/14 01:45:27;;;;;;;3.72;1.15;;;19.40;43.90;;;;;;8426511;28;20062;-53
2024/02/14 01:49:29;;;;;;;2.38;0.90;;;19.40;43.80;;;;;;8427307;28;20085;-54
2024/02/14 01:53:30;;;;;;;3.10;1.08;;;19.40;43.90;;;;;;8427213;28;20075;-54
2024/02/14 01:57:32;;;;;;;7.30;0.90;;;19.30;43.90;;;;;;8427006;28;20044;-52
2024/02/14 02:01:33;;;;;;;1.58;0.75;;;19.30;43.90;;;;;;8426886;28;20066;-54
2024/02/14 02:05:34;;;;;;;3.70;0.82;;;19.30;43.90;;;;;;8427058;28;20040;-54
2024/02/14 02:09:35;;;;;;;4.57;1.05;;;19.30;43.90;;;;;;8427432;28;20044;-54
2024/02/14 02:13:38;;;;;;;3.28;0.85;;;19.30;43.90;;;;;;8425814;28;20501;-54
2024/02/14 02:17:39;;;;;;;5.57;1.00;;;19.20;43.90;;;;;;8426516;28;20059;-53
2024/02/14 02:21:42;;;;;;;4.00;0.93;;;19.20;43.80;;;;;;8426652;28;20043;-53
2024/02/14 02:25:44;;;;;;;2.97;1.15;;;19.20;43.90;;;;;;8426456;28;20401;-53
2024/02/14 02:29:44;;;;;;;8.27;1.13;;;19.20;43.90;;;;;;8426335;28;20542;-54
2024/02/14 02:33:45;;;;;;;3.53;1.10;;;19.20;43.90;;;;;;8408366;28;20420;-54
2024/02/14 02:37:47;;;;;;;3.40;1.23;;;19.20;43.90;;;;;;8426156;28;20031;-54
2024/02/14 02:41:49;;;;;;;3.70;1.08;;;19.20;43.90;;;;;;8426140;28;20066;-55
2024/02/14 02:45:50;;;;;;;3.58;0.90;;;19.20;43.90;;;;;;8426013;28;20040;-54
2024/02/14 02:49:52;;;;;;;1.35;0.80;;;19.10;43.80;;;;;;8425762;28;20551;-54
2024/02/14 02:53:52;;;;;;;4.15;0.85;;;19.10;43.80;;;;;;8426050;28;20024;-54
2024/02/14 02:57:53;;;;;;;1.40;0.77;;;19.10;43.80;;;;;;8425847;28;20033;-54
2024/02/14 03:01:54;;;;;;;2.60;0.75;;;19.10;43.90;;;;;;8425610;28;20443;-53
2024/02/14 03:05:56;;;;;;;3.03;0.77;;;19.10;43.90;;;;;;8425886;28;20040;-51
2024/02/14 03:09:57;;;;;;;2.17;0.93;;;19.10;43.80;;;;;;8425688;28;20067;-52
2024/02/14 03:13:57;;;;;;;3.30;1.03;;;19.10;43.80;;;;;;8425441;28;20048;-52
2024/02/14 03:17:58;;;;;;;1.25;0.90;;;19.10;43.90;;;;;;8425560;28;20778;-52
2024/02/14 03:21:58;;;;;;;2.70;0.80;;;19.10;43.90;;;;;;8425618;28;20066;-53
2024/02/14 03:25:59;;;;;;;0.73;0.73;;;19.10;43.90;;;;;;8428086;28;20078;-52
2024/02/14 03:30:02;;;;;;;1.20;0.87;;;19.00;43.90;;;;;;8431679;28;20834;-52
2024/02/14 03:34:03;;;;;;;1.52;0.90;;;19.00;43.90;;;;;;8431706;28;20281;-51
2024/02/14 03:38:04;;;;;;;1.33;0.63;;;19.00;44.00;;;;;;8431825;28;20115;-51
2024/02/14 03:42:07;;;;;;;1.23;0.90;;;19.00;44.00;;;;;;8431356;28;20040;-53
2024/02/14 03:46:08;;;;;;;2.33;0.95;;;18.90;44.00;;;;;;8431233;28;20481;-51
2024/02/14 03:50:09;;;;;;;1.55;0.82;;;18.90;44.00;;;;;;8431067;28;20393;-52
2024/02/14 03:54:11;;;;;;;2.03;0.73;;;18.90;44.00;;;;;;8431238;28;20077;-51
2024/02/14 03:58:13;;;;;;;1.08;0.80;;;18.90;44.00;;;;;;8430726;28;20111;-53
2024/02/14 04:02:14;;;;;;;1.50;0.80;;;18.90;43.90;;;;;;8413590;28;20036;-52
2024/02/14 04:06:15;;;;;;;1.30;0.70;;;18.90;43.90;;;;;;8430690;28;20106;-52
2024/02/14 04:10:16;;;;;;;2.03;1.23;;;18.90;44.00;;;;;;8430525;28;20040;-54
2024/02/14 04:14:16;;;;;;;1.10;0.60;;;18.90;44.00;;;;;;8430277;28;20397;-54
2024/02/14 04:18:18;;;;;;;1.80;0.65;;;18.90;44.00;;;;;;8431073;28;20039;-53
2024/02/14 04:22:19;;;;;;;0.82;0.70;;;18.90;44.00;;;;;;8430063;28;20043;-54
2024/02/14 04:26:20;;;;;;;1.65;0.80;;;18.90;44.00;;;;;;8430002;28;20106;-54
2024/02/14 04:30:21;;;;;;;1.98;0.80;;;18.90;43.90;;;;;;8429644;28;20059;-55
2024/02/14 04:34:22;;;;;;;2.05;0.88;;;18.90;43.90;;;;;;8429835;28;20040;-54
2024/02/14 04:38:23;;;;;;;1.73;0.70;;;18.90;43.90;;;;;;8428709;28;20367;-55
2024/02/14 04:42:24;;;;;;;;;;;18.90;43.90;;;;;;8411900;28;20043;-55
2024/02/14 04:46:24;;;;;;;0.80;0.60;;;18.80;43.90;;;;;;8429522;28;19908;-55
2024/02/14 04:50:25;;;;;;;1.15;0.70;;;18.90;43.90;;;;;;8429224;28;20036;-55
2024/02/14 04:54:26;;;;;;;2.10;1.77;;;18.90;43.90;;;;;;8428991;28;20036;-55
2024/02/14 04:58:26;;;;;;;0.75;0.75;;;18.90;43.90;;;;;;8428969;28;20308;-54
2024/02/14 05:02:27;;;;;;;1.35;0.98;;;18.90;44.00;;;;;;8428898;28;20394;-52
2024/02/14 05:06:28;;;;;;;1.05;0.60;;;18.90;43.90;;;;;;8428574;28;20039;-55
2024/02/14 05:10:29;;;;;;;1.38;0.50;;;18.90;43.90;;;;;;8428618;28;20119;-53
2024/02/14 05:14:31;;;;;;;1.27;0.90;;;18.90;43.90;;;;;;8428288;28;20052;-54
2024/02/14 05:18:31;;;;;;;0.75;0.50;;;18.90;43.90;;;;;;8428522;28;20112;-50
2024/02/14 05:22:32;;;;;;;1.88;0.90;;;18.90;43.90;;;;;;8428411;28;20474;-54
2024/02/14 05:26:33;;;;;;;0.95;0.70;;;18.90;43.80;;;;;;8427838;28;20044;-54
2024/02/14 05:30:36;;;;;;;;;;;18.90;43.80;;;;;;8428369;28;20035;-54
2024/02/14 05:34:36;;;;;;;0.65;0.50;;;19.00;43.70;;;;;;8428025;28;20337;-54
2024/02/14 05:38:37;;;;;;;1.33;0.80;;;19.10;43.60;;;;;;8427853;28;20028;-53
2024/02/14 05:42:38;;;;;;;2.22;1.13;;;19.10;43.50;;;;;;8427930;28;20036;-54
2024/02/14 05:46:39;;;;;;;0.65;0.65;;;19.10;43.40;;;;;;8427644;28;20040;-54
2024/02/14 05:50:40;;;;;;;0.63;0.50;;;19.10;43.40;;;;;;8427129;28;20077;-51
2024/02/14 05:54:40;;;;;;;1.95;0.75;;;19.10;43.40;;;;;;8428251;28;20063;-53
2024/02/14 05:58:41;;;;;;;0.52;0.50;;;19.10;43.40;;;;;;8428110;28;20024;-54
2024/02/14 06:02:42;;;;;;;0.80;0.50;;;19.10;43.30;;;;;;8427044;28;20114;-55
2024/02/14 06:06:43;;;;;;;1.42;0.60;;;19.10;43.30;;;;;;8408750;28;20039;-54
2024/02/14 06:10:43;;;;;;;1.08;0.70;;;19.10;43.30;;;;;;8426644;28;20036;-53
2024/02/14 06:14:47;;;;;;;0.70;0.70;;;19.10;43.30;;;;;;8426817;28;20378;-54
2024/02/14 06:18:48;;;;;;;0.77;0.70;;;19.10;43.30;;;;;;8426651;28;20043;-53
2024/02/14 06:22:48;;;;;;;1.10;0.82;;;19.10;43.30;;;;;;8426533;28;20044;-53
2024/02/14 06:26:49;;;;;;;0.68;0.60;;;19.20;43.40;;;;;;8426440;28;20028;-54
2024/02/14 06:30:50;;;;;;;0.60;0.57;;;19.20;43.40;;;;;;8426432;28;20040;-54
2024/02/14 06:34:51;;;;;;;1.33;0.70;;;19.10;43.30;;;;;;8426346;28;20028;-53
2024/02/14 06:38:51;;;;;;;1.98;0.60;;;19.20;43.30;;;;;;8426319;28;20028;-55
2024/02/14 06:42:54;;;;;;;0.90;0.57;;;19.20;43.40;;;;;;8426245;28;20020;-55
2024/02/14 06:46:55;;;;;;;2.00;0.60;;;19.20;43.30;;;;;;8426232;28;20055;-55
2024/02/14 06:50:55;;;;;;;0.75;0.70;;;19.20;43.30;;;;;;8425907;28;20047;-55
2024/02/14 06:54:56;;;;;;;0.85;0.70;;;19.20;43.40;;;;;;8426264;28;20032;-55
2024/02/14 06:58:59;;;;;;;1.50;0.70;;;19.20;43.30;;;;;;8425918;28;20035;-55
2024/02/14 07:03:00;;;;;;;0.50;0.50;;;19.10;43.30;;;;;;8432393;28;20028;-54
2024/02/14 07:07:01;;;;;;;0.75;0.60;;;19.20;43.30;;;;;;8432632;28;20032;-54
2024/02/14 07:11:01;;;;;;;0.70;0.63;;;19.10;43.30;;;;;;8432218;28;20042;-52
2024/02/14 07:15:07;;;;;;;0.77;0.60;;;19.20;43.30;;;;;;8432305;28;20085;-55
2024/02/14 07:19:08;;;;;;;0.70;0.70;;;19.10;43.30;;;;;;8432261;28;20150;-53
2024/02/14 07:23:09;;;;;;;0.95;0.65;;;19.10;43.30;;;;;;8432174;28;20532;-55
2024/02/14 07:27:10;;;;;;;0.55;0.50;;;19.20;43.30;;;;;;8431776;28;20032;-53
2024/02/14 07:31:11;;;;;;;0.68;0.60;;;19.20;43.40;;;;;;8431833;28;20063;-54
2024/02/14 07:35:16;;;;;;;0.77;0.60;;;19.20;43.30;;;;;;8431960;28;20064;-53
2024/02/14 07:39:17;;;;;;;1.13;0.60;;;19.20;43.30;;;;;;8413459;28;20046;-52
2024/02/14 07:43:17;;;;;;;0.90;0.60;;;19.20;43.40;;;;;;8431340;28;20032;-53
2024/02/14 07:47:19;;;;;;;0.47;0.47;;;19.20;43.30;;;;;;8431160;28;20036;-54
2024/02/14 07:51:20;;;;;;;0.77;0.60;;;19.20;43.30;;;;;;8432159;28;20028;-52
2024/02/14 07:55:22;;;;;;;0.55;0.55;;;19.10;43.30;;;;;;8413087;28;20066;-54
2024/02/14 07:59:22;;;;;;;0.55;0.50;;;19.10;43.30;;;;;;8430797;28;20028;-54
2024/02/14 08:03:24;;;;;;;1.13;0.68;;;19.10;43.30;;;;;;8430812;28;20039;-54
2024/02/14 08:07:25;;;;;;;0.90;0.60;;;19.10;43.30;;;;;;8413164;28;20093;-54
2024/02/14 08:11:25;;;;;;;0.73;0.47;;;19.20;43.30;;;;;;8428799;28;20052;-54
2024/02/14 08:15:26;;;;;;;0.50;0.50;;;19.20;43.40;;;;;;8430608;28;20513;-54
2024/02/14 08:19:27;;;;;;;0.63;0.52;;;19.20;43.30;;;;;;8430444;28;20059;-54
2024/02/14 08:23:27;;;;;;;0.70;0.68;;;19.20;43.30;;;;;;8412056;28;20378;-53
2024/02/14 08:27:28;;;;;;;0.85;0.70;;;19.20;43.30;;;;;;8429969;28;20036;-52
2024/02/14 08:31:29;;;;;;;1.60;0.60;;;19.10;43.30;;;;;;8429823;28;20374;-54
2024/02/14 08:35:30;;;;;;;0.75;0.52;;;19.20;43.30;;;;;;8429756;28;20032;-54
2024/02/14 08:39:31;;;;;;;1.08;0.50;;;19.20;43.30;;;;;;8430029;28;20037;-53
2024/02/14 08:43:31;;;;;;;0.50;0.40;;;19.20;43.30;;;;;;8429675;28;20032;-53
2024/02/14 08:47:32;;;;;;;0.60;0.60;;;19.20;43.30;;;;;;8429424;28;20044;-54
2024/02/14 08:51:33;;;;;;;0.50;0.50;;;19.20;43.30;;;;;;8429293;28;20032;-55
2024/02/14 08:55:34;;;;;;;;;;;19.20;43.30;;;;;;8429410;28;20389;-53
2024/02/14 08:59:35;;;;;;;0.80;0.80;;;19.10;43.30;;;;;;8429162;28;19999;-55
2024/02/14 09:03:35;;;;;;;1.08;0.80;;;19.10;43.30;;;;;;8428934;28;20101;-55
2024/02/14 09:07:36;;;;;;;1.38;0.88;;;19.10;43.30;;;;;;8428593;28;20101;-55
2024/02/14 09:11:37;;;;;;;0.80;0.55;;;19.10;43.30;;;;;;8428328;28;20051;-54
2024/02/14 09:15:38;;;;;;;0.68;0.57;;;19.10;43.30;;;;;;8428548;28;20035;-55
2024/02/14 09:19:38;;;;;;;0.82;0.70;;;19.10;43.30;;;;;;8428581;28;20111;-54
2024/02/14 09:23:40;;;;;;;1.52;0.70;;;19.10;43.30;;;;;;8427689;28;20563;-54
2024/02/14 09:27:41;;;;;;;1.60;0.60;;;19.10;43.30;;;;;;8427917;28;20040;-54
2024/02/14 09:31:42;;;;;;;0.80;0.70;;;19.20;43.30;;;;;;8427811;28;20390;-53
2024/02/14 09:35:47;;;;;;;1.17;0.60;;;19.10;43.30;;;;;;8427969;28;20111;-53
2024/02/14 09:39:48;;;;;;;1.77;0.60;;;19.20;43.30;;;;;;8409481;28;20028;-53
2024/02/14 09:43:49;;;;;;;1.35;0.60;;;19.10;43.30;;;;;;8427524;28;20116;-55
2024/02/14 09:47:50;;;;;;;0.45;0.45;;;19.10;43.30;;;;;;8408979;28;20028;-55
2024/02/14 09:51:51;;;;;;;;;;;19.10;43.30;;;;;;8427576;28;20071;-54
2024/02/14 09:55:54;;;;;;;0.60;0.60;;;19.10;43.30;;;;;;8427314;28;19947;-55
2024/02/14 09:59:56;;;;;;;1.05;0.60;;;19.10;43.30;;;;;;8427060;28;20157;-55
2024/02/14 10:03:58;;;;;;;0.88;0.55;;;19.10;43.20;;;;;;8426945;28;20039;-55
2024/02/14 10:07:58;;;;;;;;;;;19.10;43.20;;;;;;8427352;28;20393;-55
2024/02/14 10:11:59;;;;;;;0.77;0.70;;;19.10;43.30;;;;;;8426514;28;20081;-53
2024/02/14 10:16:00;;;;;;;1.35;0.65;;;19.10;43.30;;;;;;8426670;28;20028;-53
2024/02/14 10:20:06;;;;;;;;;;;19.10;43.30;;;;;;8427101;28;20039;-52
2024/02/14 10:24:10;;;;;;;0.82;0.65;;;19.10;43.30;;;;;;8426674;28;19926;-54
2024/02/14 10:28:11;;;;;;;0.52;0.52;;;19.10;43.30;;;;;;8408355;28;20035;-54
2024/02/14 10:32:16;;;;;;;1.58;0.60;;;19.20;43.30;;;;;;8408169;28;20111;-55
2024/02/14 10:36:17;;;;;;;0.77;0.60;;;19.10;43.30;;;;;;8425303;28;20512;-53
2024/02/14 10:40:20;;;;;;;0.82;0.60;;;19.20;43.30;;;;;;8426272;28;20051;-54
2024/02/14 10:44:21;;;;;;;0.80;0.75;;;19.10;43.30;;;;;;8426411;28;20020;-54
2024/02/14 10:48:25;;;;;;;0.50;0.50;;;19.10;43.30;;;;;;8426175;28;20035;-55
2024/02/14 10:52:30;;;;;;;0.60;0.60;;;19.10;43.30;;;;;;8407978;28;20052;-55
2024/02/14 10:56:32;;;;;;;0.70;0.65;;;19.10;43.30;;;;;;8425901;28;20062;-55
2024/02/14 11:00:33;;;;;;;0.52;0.50;;;19.10;43.30;;;;;;8425996;28;20039;-54
2024/02/14 11:04:34;;;;;;;0.50;0.50;;;19.10;43.30;;;;;;8425840;28;20101;-54
2024/02/14 11:08:35;;;;;;;0.65;0.55;;;19.10;43.30;;;;;;8425841;28;20465;-54
2024/02/14 11:12:38;;;;;;;;;;;19.10;43.30;;;;;;8426251;28;20048;-53
2024/02/14 11:16:40;;;;;;;0.50;0.50;;;19.10;43.30;;;;;;8425756;28;19943;-52
2024/02/14 11:20:46;;;;;;;0.50;0.45;;;19.10;43.30;;;;;;8425501;28;20753;-58
2024/02/14 11:24:47;;;;;;;0.75;0.63;;;19.10;43.30;;;;;;8425660;28;20115;-53
2024/02/14 11:28:49;;;;;;;0.70;0.68;;;19.10;43.30;;;;;;8407056;28;20606;-52
2024/02/14 11:32:49;;;;;;;;;;;19.10;43.30;;;;;;8425956;28;20062;-51
2024/02/14 11:36:51;;;;;;;0.80;0.70;;;19.10;43.30;;;;;;8425256;28;19943;-53
2024/02/14 11:40:59;;;;;;;0.60;0.52;;;19.10;43.30;;;;;;8390144;28;20024;-53
2024/02/14 11:44:59;;;;;;;0.68;0.52;;;19.10;43.30;;;;;;8425462;28;20542;-52
2024/02/14 11:49:02;;;;;;;0.93;0.60;;;19.10;43.30;;;;;;8430893;28;20481;-52
2024/02/14 11:53:03;;;;;;;0.60;0.60;;;19.10;43.30;;;;;;8430888;28;20342;-51
2024/02/14 11:57:04;;;;;;;0.50;0.40;;;19.10;43.30;;;;;;8412786;28;20090;-52
2024/02/14 12:01:05;;;;;;;1.20;0.80;;;19.00;43.30;;;;;;8430919;28;20093;-52
2024/02/14 12:05:06;;;;;;;;;;;19.00;43.30;;;;;;8431265;28;20036;-53
2024/02/14 12:09:09;;;;;;;1.03;0.53;;;19.10;43.30;;;;;;8412548;28;19958;-50
2024/02/14 12:13:14;;;;;;;0.60;0.60;;;19.00;43.30;;;;;;8430232;28;20455;-52
2024/02/14 12:17:18;;;;;;;0.55;0.47;;;19.00;43.30;;;;;;8430545;28;20154;-52
2024/02/14 12:21:19;;;;;;;0.40;0.38;;;19.00;43.30;;;;;;8430437;28;20047;-54
2024/02/14 12:25:20;;;;;;;0.75;0.75;;;19.10;43.30;;;;;;8412043;28;20036;-52
2024/02/14 12:29:24;;;;;;;0.63;0.50;;;19.10;43.30;;;;;;8412126;28;20032;-54
2024/02/14 12:33:26;;;;;;;0.70;0.60;;;19.10;43.60;;;;;;8429553;28;20474;-53
2024/02/14 12:37:27;;;;;;;1.15;0.75;;;19.10;43.30;;;;;;8429570;28;20040;-53
2024/02/14 12:41:29;;;;;;;0.75;0.40;;;19.10;43.30;;;;;;8411286;28;20150;-53
2024/02/14 12:45:30;;;;;;;0.73;0.50;;;19.10;43.30;;;;;;8429489;28;20040;-53
2024/02/14 12:49:31;;;;;;;0.50;0.50;;;19.10;43.30;;;;;;8411342;28;20040;-52
2024/02/14 12:53:32;;;;;;;0.57;0.57;;;19.00;43.30;;;;;;8429201;28;20035;-53
2024/02/14 12:57:33;;;;;;;0.73;0.60;;;19.00;43.30;;;;;;8428685;28;20504;-53
2024/02/14 13:01:33;;;;;;;1.33;0.70;;;19.00;43.30;;;;;;8428781;28;20036;-53
2024/02/14 13:05:35;;;;;;;0.52;0.40;;;19.10;43.30;;;;;;8411340;28;20063;-53
2024/02/14 13:09:36;;;;;;;0.52;0.52;;;19.10;43.30;;;;;;8428820;28;20035;-53
2024/02/14 13:13:37;;;;;;;0.60;0.60;;;19.10;43.30;;;;;;8428306;28;20052;-53
2024/02/14 13:17:38;;;;;;;0.50;0.50;;;19.00;43.30;;;;;;8428561;28;20477;-53
2024/02/14 13:21:40;;;;;;;0.57;0.50;;;19.10;43.30;;;;;;8428329;28;20036;-53
2024/02/14 13:25:41;;;;;;;0.85;0.50;;;19.10;43.30;;;;;;8428328;28;20036;-53
2024/02/14 13:29:41;;;;;;;0.52;0.45;;;19.10;43.30;;;;;;8394830;28;20033;-53
2024/02/14 13:33:42;;;;;;;1.20;0.60;;;19.10;43.30;;;;;;8394493;28;20067;-53
2024/02/14 13:37:44;;;;;;;0.60;0.45;;;19.10;43.30;;;;;;8394452;28;20482;-54
2024/02/14 13:41:47;;;;;;;1.33;0.65;;;19.10;43.30;;;;;;8394185;28;20040;-54
2024/02/14 13:45:50;;;;;;;0.85;0.50;;;19.10;43.30;;;;;;8394182;28;20035;-53
2024/02/14 13:49:51;;;;;;;0.50;0.50;;;19.10;43.30;;;;;;8394718;28;20033;-53
2024/02/14 13:53:52;;;;;;;0.60;0.60;;;19.10;43.30;;;;;;8393933;28;20497;-52
2024/02/14 13:57:53;;;;;;;0.52;0.40;;;19.10;43.30;;;;;;8412651;28;20240;-52
2024/02/14 14:01:54;;;;;;;0.55;0.55;;;19.10;43.30;;;;;;8427242;28;20084;-53
2024/02/14 14:05:56;;;;;;;0.88;0.43;;;19.00;43.30;;;;;;8427054;28;20036;-53
2024/02/14 14:09:57;;;;;;;0.57;0.50;;;19.00;43.30;;;;;;8427811;28;20500;-53
2024/02/14 14:13:57;;;;;;;0.70;0.50;;;19.10;43.30;;;;;;8426662;28;20425;-53
2024/02/14 14:17:58;;;;;;;0.57;0.57;;;19.10;43.30;;;;;;8426856;28;20032;-54
2024/02/14 14:21:59;;;;;;;0.95;0.60;;;19.00;43.30;;;;;;8426611;28;20429;-53
2024/02/14 14:26:00;;;;;;;0.55;0.50;;;19.00;43.30;;;;;;8426367;28;20039;-54
2024/02/14 14:30:01;;;;;;;1.38;0.50;;;19.00;43.30;;;;;;8426667;28;20113;-52
2024/02/14 14:34:02;;;;;;;0.82;0.73;;;19.10;43.30;;;;;;8426191;28;20031;-53
2024/02/14 14:38:03;;;;;;;0.40;0.40;;;19.10;43.30;;;;;;8426300;28;20043;-52
2024/02/14 14:42:04;;;;;;;;;;;19.10;43.30;;;;;;8426708;28;20081;-54
2024/02/14 14:46:04;;;;;;;0.50;0.43;;;19.00;43.30;;;;;;8407962;28;19908;-54
2024/02/14 14:50:07;;;;;;;0.40;0.40;;;19.00;43.30;;;;;;8426420;28;20040;-55
2024/02/14 14:54:08;;;;;;;1.13;0.60;;;19.00;43.30;;;;;;8425870;28;20036;-54
2024/02/14 14:58:13;;;;;;;0.40;0.38;;;19.00;43.30;;;;;;8425796;28;20028;-54
2024/02/14 15:02:13;;;;;;;0.43;0.43;;;19.00;43.30;;;;;;8407933;28;20028;-54
2024/02/14 15:06:15;;;;;;;0.40;0.40;;;19.10;43.30;;;;;;8408038;28;20037;-54
2024/02/14 15:10:15;;;;;;;;;;;19.00;43.40;;;;;;8426125;28;20439;-53
2024/02/14 15:14:17;;;;;;;0.47;0.40;;;19.00;43.30;;;;;;8425779;28;19963;-53
2024/02/14 15:18:18;;;;;;;0.50;0.38;;;19.00;43.30;;;;;;8425943;28;20111;-54
2024/02/14 15:22:19;;;;;;;0.43;0.43;;;19.00;43.30;;;;;;8428958;28;20043;-54
2024/02/14 15:26:23;;;;;;;0.50;0.50;;;19.00;43.30;;;;;;8432613;28;20028;-53
2024/02/14 15:34:44;;;;;;;0.50;0.50;;;19.00;43.30;;;;;;8431839;28;20111;-53
2024/02/14 15:38:45;;;;;;;0.50;0.50;;;19.00;43.40;;;;;;8431559;28;20028;-54
2024/02/14 15:42:45;;;;;;;0.40;0.40;;;19.00;43.40;;;;;;8413458;28;20278;-54
2024/02/14 15:46:46;;;;;;;0.47;0.43;;;19.00;43.40;;;;;;8431434;28;20489;-55
2024/02/14 15:50:47;;;;;;;0.40;0.40;;;19.00;43.40;;;;;;8431128;28;20044;-54
2024/02/14 15:54:48;;;;;;;0.52;0.45;;;19.00;43.40;;;;;;8431373;28;20107;-54
2024/02/14 15:58:49;;;;;;;0.32;0.30;;;19.00;43.40;;;;;;8431232;28;20035;-55
2024/02/14 16:02:49;;;;;;;0.50;0.50;;;19.00;43.40;;;;;;8430681;28;20032;-53
2024/02/14 16:06:50;;;;;;;0.40;0.40;;;19.00;43.40;;;;;;8430868;28;20032;-54
2024/02/14 16:10:53;;;;;;;0.70;0.50;;;19.00;43.40;;;;;;8412561;28;20035;-54
2024/02/14 16:14:54;;;;;;;0.93;0.40;;;19.00;43.40;;;;;;8430647;28;20036;-55
2024/02/14 16:18:54;;;;;;;0.70;0.60;;;19.00;43.40;;;;;;8430422;28;20081;-54
2024/02/14 16:22:55;;;;;;;0.70;0.40;;;19.00;43.40;;;;;;8430317;28;20081;-55
2024/02/14 16:26:59;;;;;;;0.40;0.40;;;19.00;43.40;;;;;;8429964;28;20038;-55
2024/02/14 16:31:00;;;;;;;0.60;0.50;;;19.00;43.40;;;;;;8430415;28;20031;-55
2024/02/14 16:35:01;;;;;;;0.65;0.60;;;19.00;43.40;;;;;;8427990;28;20028;-55
2024/02/14 16:39:02;;;;;;;;;;;19.00;43.40;;;;;;8412626;28;20103;-55
2024/02/14 16:43:04;;;;;;;0.40;0.40;;;19.00;43.40;;;;;;8411556;28;19908;-55
2024/02/14 16:47:05;;;;;;;0.50;0.50;;;19.00;43.40;;;;;;8429329;28;20047;-55
2024/02/14 16:51:07;;;;;;;0.32;0.32;;;19.00;43.40;;;;;;8394414;28;20024;-55
2024/02/14 16:55:08;;;;;;;0.55;0.40;;;19.00;43.40;;;;;;8429651;28;20427;-54
2024/02/14 16:59:09;;;;;;;0.30;0.30;;;19.00;43.40;;;;;;8428996;28;20058;-55
2024/02/14 17:03:10;;;;;;;0.40;0.40;;;19.00;43.40;;;;;;8429262;28;20461;-53
2024/02/14 17:07:11;;;;;;;0.40;0.40;;;19.00;43.40;;;;;;8411033;28;20040;-53
2024/02/14 17:11:15;;;;;;;0.40;0.40;;;19.00;43.40;;;;;;8428330;28;20109;-53
2024/02/14 17:15:16;;;;;;;0.40;0.40;;;19.00;43.40;;;;;;8410599;28;20024;-51
2024/02/14 17:19:17;;;;;;;0.75;0.50;;;19.00;43.40;;;;;;8428492;28;20553;-52
2024/02/14 17:23:17;;;;;;;0.40;0.40;;;19.00;43.40;;;;;;8428622;28;20036;-53
2024/02/14 17:27:18;;;;;;;1.02;0.40;;;19.00;43.40;;;;;;8393457;28;20028;-53
2024/02/14 17:31:19;;;;;;;0.38;0.38;;;19.00;43.40;;;;;;8427990;28;20032;-53
2024/02/14 17:35:20;;;;;;;0.50;0.45;;;19.00;43.40;;;;;;8428162;28;20034;-53
2024/02/14 17:39:21;;;;;;;0.43;0.43;;;19.00;43.30;;;;;;8428935;28;20032;-52
2024/02/14 17:43:21;;;;;;;0.40;0.40;;;19.10;43.30;;;;;;8427240;28;20036;-54
2024/02/14 17:47:23;;;;;;;0.40;0.40;;;19.10;43.30;;;;;;8427716;28;20039;-53
2024/02/14 17:51:27;;;;;;;0.30;0.30;;;19.10;43.30;;;;;;8409462;28;20103;-53
2024/02/14 17:55:27;;;;;;;0.30;0.30;;;19.00;43.30;;;;;;8427687;28;20100;-53
2024/02/14 17:59:28;;;;;;;0.50;0.50;;;19.00;43.40;;;;;;8427278;28;20028;-54
2024/02/14 18:03:29;;;;;;;0.77;0.55;;;19.00;43.40;;;;;;8427388;28;20034;-53
2024/02/14 18:07:30;;;;;;;0.70;0.60;;;19.00;43.40;;;;;;8426955;28;20036;-53
2024/02/14 18:11:30;;;;;;;0.30;0.30;;;19.00;43.40;;;;;;8426779;28;20059;-52
2024/02/14 18:15:32;;;;;;;0.38;0.38;;;19.00;43.50;;;;;;8427072;28;20032;-52
2024/02/14 18:19:33;;;;;;;0.50;0.50;;;19.00;43.50;;;;;;8426829;28;20035;-52
2024/02/14 18:23:34;;;;;;;0.47;0.47;;;19.00;43.50;;;;;;8426743;28;20036;-52
2024/02/14 18:27:34;;;;;;;0.50;0.40;;;19.00;43.50;;;;;;8426477;28;20039;-53
2024/02/14 18:31:35;;;;;;;0.50;0.50;;;19.00;43.40;;;;;;8426352;28;20085;-53
2024/02/14 18:35:36;;;;;;;0.43;0.43;;;19.00;43.40;;;;;;8426352;28;20558;-52
2024/02/14 18:39:40;;;;;;;0.35;0.35;;;19.00;43.40;;;;;;8426289;28;20068;-53
2024/02/14 18:43:41;;;;;;;0.60;0.60;;;19.00;43.40;;;;;;8426131;28;20550;-50
2024/02/14 18:47:41;;;;;;;0.68;0.43;;;19.00;43.40;;;;;;8426291;28;20420;-53
2024/02/14 18:51:42;;;;;;;0.40;0.40;;;19.00;43.40;;;;;;8426178;28;20036;-51
2024/02/14 18:55:44;;;;;;;0.40;0.40;;;19.00;44.00;;;;;;8427385;28;20027;-53
2024/02/14 18:59:45;;;;;;;0.60;0.40;;;19.00;43.50;;;;;;8432934;28;20032;-53
2024/02/14 19:03:45;;;;;;;0.40;0.40;;;19.00;43.50;;;;;;8432880;28;20035;-52
2024/02/14 19:07:46;;;;;;;0.50;0.50;;;19.00;43.40;;;;;;8432873;28;20371;-53
2024/02/14 19:11:47;;;;;;;0.70;0.70;;;19.00;43.40;;;;;;8432559;28;20060;-50
2024/02/14 19:15:48;;;;;;;0.70;0.50;;;19.00;43.30;;;;;;8414257;28;20028;-50
2024/02/14 19:19:48;;;;;;;0.40;0.40;;;19.10;43.40;;;;;;8432388;28;20024;-52
2024/02/14 19:23:49;;;;;;;0.63;0.50;;;19.00;43.30;;;;;;8432722;28;20032;-55
2024/02/14 19:27:50;;;;;;;0.45;0.40;;;19.00;43.40;;;;;;8432090;28;20514;-54
2024/02/14 19:31:50;;;;;;;0.75;0.50;;;19.00;43.40;;;;;;8431824;28;20032;-55
2024/02/14 19:35:51;;;;;;;0.43;0.43;;;19.00;43.40;;;;;;8431890;28;20682;-51
2024/02/14 19:39:52;;;;;;;0.55;0.50;;;19.00;43.40;;;;;;8431496;28;20051;-53
2024/02/14 19:43:53;;;;;;;0.40;0.40;;;19.00;43.40;;;;;;8431609;28;20033;-53
2024/02/14 19:47:54;;;;;;;0.30;0.30;;;19.00;43.40;;;;;;8431411;28;20032;-54
2024/02/14 19:51:55;;;;;;;0.88;0.60;;;19.00;43.50;;;;;;8431350;28;20111;-54
2024/02/14 19:55:58;;;;;;;0.40;0.40;;;19.00;43.50;;;;;;8431156;28;20033;-55
2024/02/14 20:00:00;;;;;;;0.47;0.47;;;19.00;43.40;;;;;;8431852;28;20032;-55
2024/02/14 20:04:01;;;;;;;0.35;0.35;;;19.00;43.40;;;;;;8431343;28;20086;-55
2024/02/14 20:08:05;;;;;;;0.50;0.50;;;19.00;43.50;;;;;;8430759;28;20115;-54
2024/02/14 20:12:07;;;;;;;0.35;0.35;;;19.00;43.40;;;;;;8430556;28;20048;-53
2024/02/14 20:16:07;;;;;;;0.40;0.40;;;19.00;43.40;;;;;;8430483;28;20063;-54
2024/02/14 20:20:08;;;;;;;0.75;0.60;;;19.00;43.30;;;;;;8430776;28;20036;-55
2024/02/14 20:24:09;;;;;;;0.50;0.35;;;19.00;43.30;;;;;;8430430;28;20115;-54
2024/02/14 20:28:10;;;;;;;0.40;0.40;;;19.00;43.40;;;;;;8430079;28;20039;-53
2024/02/14 20:32:11;;;;;;;;;;;19.10;43.40;;;;;;8430984;28;20039;-53
2024/02/14 20:36:12;;;;;;;0.80;0.57;;;19.00;43.30;;;;;;8430488;28;19904;-54
2024/02/14 20:40:13;;;;;;;0.32;0.32;;;19.00;43.40;;;;;;8429811;28;20059;-53
2024/02/14 20:44:13;;;;;;;;;;;19.00;43.40;;;;;;8430142;28;20481;-54
2024/02/14 20:48:14;;;;;;;0.40;0.40;;;19.00;43.40;;;;;;8429806;28;20292;-53
2024/02/14 20:52:15;;;;;;;0.30;0.30;;;19.00;43.40;;;;;;8411061;28;20039;-54
2024/02/14 20:56:16;;;;;;;0.50;0.50;;;19.00;43.50;;;;;;8429253;28;20040;-54
2024/02/14 21:00:17;;;;;;;0.50;0.50;;;19.10;43.40;;;;;;8429224;28;20028;-54
2024/02/14 21:04:17;;;;;;;0.50;0.50;;;19.00;43.30;;;;;;8411506;28;20035;-52